Randolph, VA (23962)

3:34 PM EDT on May 24, 2017 (GMT -0400)
The Cove | | Change Station
Active Advisory: Flood Warning Active Notice: Public Information Statement

Elev 478 ft 36.94 °N, 78.79 °W | Updated 2 seconds ago

Overcast
Overcast
63.1 °F
Feels Like 63.1 °F
N
0.0
Wind Variable Wind from ESE
Gusts 0.0 mph

Today
High -- | Low -- °F
--% Chance of Precip.
Yesterday
High -- | Low -- °F
Precip. -- in
Pressure 29.66 in
Visibility 10.0 miles
Clouds Mostly Cloudy 600 ft
Overcast 1300 ft
Dew Point 62 °F
Humidity 97%
Rainfall 0.07 in
Snow Depth Not available.
6:00 AM 8:23 PM
Waning Crescent, 2% visible
METAR KFVX 241915Z AUTO 08005KT 10SM BKN006 OVC013 18/15 A2966 RMK AO2 LTG DSNT W T01810150
Pressure 29.66 in
Visibility 10.0 miles
Clouds Mostly Cloudy 600 ft
Overcast 1300 ft
Dew Point 62 °F
Humidity 97%
Rainfall 0.07 in
Snow Depth Not available.
6:00 AM 8:23 PM
Waning Crescent, 2% visible
METAR KFVX 241915Z AUTO 08005KT 10SM BKN006 OVC013 18/15 A2966 RMK AO2 LTG DSNT W T01810150

Get Your Daily Forecast Email!

Thanks for signing up!

Be on the lookout for a verification email in your inbox.

You'll start receiving severe weather alerts in your inbox..

×

10-Day Weather Forecast

Almanac

Astronomy

May. 24, 2017 Rise Set
Actual Time
Civil Twilight
Nautical Twilight
Astronomical Twilight
Moon
Length of Visible Light
Length of Day
Tomorrow will be .
, % of the Moon is Illuminated

Today's Extremes

State Highs State Lows

Community

WunderPhotos

Category 6

Welcome to Category 6. This is the collective home for Weather Underground's featured writeups by Dr. Jeff Masters (right), Bob Henson (left), Chris Burt, and other regular contributors.

Nearby

Air Quality

  Air Quality AQ Index Pollutant
Not available.

Snow Depth

Station Depth Elevation

Earthquake Activity

City Distance Mag. Time & Date
Minimum magnitude displayed is 2.5.

Coastal Water Temperatures

Place Temperature

Stations

Nearby Weather Stations

Station Location Temp. Windchill Dew Point Humidity Wind Precip. Elev Updated Type
                   

Watches & Warnings

Flood Warning
Issued: 1:57 PM EDT May. 24, 2017 – National Weather Service

The Flood Warning continues for
the Roanoke River at Randolph.
* From late Friday morning until Saturday afternoon
* at noon Wednesday the stage was 15.4 feet.

* Flood stage is 21.0 feet.
* Forecast to rise above flood stage by late Friday morning and
continue to rise to near 21.3 feet by Friday evening. The river
will fall below flood stage Saturday morning.
* Impact... at 21.0 feet... water approaches River Road (route 607)
south of Randolph.
* Flood history... this crest compares to a previous crest of 21.4
feet on Jan 24 2017.


Lat... Lon 3695 7885 3703 7882 3702 7872 3690 7866
          3680 7863 3680 7870